Time;durP1;ratioP1;P1;durP2;ratioP2;P2;SDS_P1;SDS_P2;PMS_P1;PMS_P2;Temp;Humidity;BMP_temperature;BMP_pressure;BME280_temperature;BME280_humidity;BME280_pressure;Samples;Min_cycle;Max_cycle;Signal;HPM_P1;HPM_P2
2022/08/15 00:00:58;;;;;;;12.75;8.20;;;;;;;30.34;39.29;100289.50;5111399;27;96837;-69
2022/08/15 00:03:29;;;;;;;11.02;7.63;;;;;;;30.14;39.62;100293.88;5112132;27;99571;-70
2022/08/15 00:05:56;;;;;;;14.60;9.07;;;;;;;30.32;39.69;100294.34;5112983;27;99234;-68
2022/08/15 00:08:23;;;;;;;13.35;8.18;;;;;;;30.30;39.77;100301.84;5107716;27;97070;-68
2022/08/15 00:10:50;;;;;;;14.00;8.15;;;;;;;30.17;40.03;100297.09;5111915;27;97549;-68
2022/08/15 00:13:22;;;;;;;12.63;8.73;;;;;;;29.95;40.59;100298.91;5112335;27;98998;-69
2022/08/15 00:15:51;;;;;;;11.50;8.32;;;;;;;29.92;40.78;100293.88;5112146;27;98034;-69
2022/08/15 00:18:20;;;;;;;11.73;8.48;;;;;;;29.76;41.13;100294.03;5112020;27;97450;-66
2022/08/15 00:20:46;;;;;;;11.00;8.45;;;;;;;29.60;41.17;100288.78;5111947;27;96812;-66
2022/08/15 00:23:15;;;;;;;17.15;8.68;;;;;;;29.57;41.22;100290.00;5106156;27;100284;-69
2022/08/15 00:25:47;;;;;;;13.75;8.43;;;;;;;29.82;40.75;100292.41;5112770;27;101489;-66
2022/08/15 00:28:14;;;;;;;10.75;7.75;;;;;;;29.73;40.95;100294.41;5110924;27;97017;-66
2022/08/15 00:30:43;;;;;;;13.07;8.32;;;;;;;29.64;41.25;100296.38;5114033;27;97121;-67
2022/08/15 00:33:10;;;;;;;14.05;8.73;;;;;;;29.66;40.84;100288.88;5113948;27;99036;-67
2022/08/15 00:35:36;;;;;;;12.77;8.52;;;;;;;29.65;41.24;100294.50;5112063;27;101862;-68
2022/08/15 00:38:04;;;;;;;14.57;8.68;;;;;;;29.68;40.92;100308.56;5113453;27;97305;-67
2022/08/15 00:41:38;;;;;;;9.30;7.78;;;;;;;29.86;40.84;100294.59;5111017;27;97049;-67
2022/08/15 00:43:19;;;;;;;11.27;8.23;;;;;;;29.89;40.80;100296.06;5111397;27;99208;-67
2022/08/15 00:45:47;;;;;;;11.63;8.65;;;;;;;29.85;40.49;100297.50;5113818;27;97795;-68
2022/08/15 00:50:58;;;;;;;15.13;9.00;;;;;;;29.59;41.15;100290.66;5106266;27;96652;-68
2022/08/15 00:53:25;;;;;;;17.52;9.35;;;;;;;29.69;41.14;100293.09;5107479;27;98867;-68
2022/08/15 00:55:52;;;;;;;13.05;8.52;;;;;;;29.65;41.12;100294.50;5110427;27;99119;-68
2022/08/15 00:58:20;;;;;;;11.27;8.55;;;;;;;29.55;41.41;100294.78;5105066;27;96861;-68
2022/08/15 01:00:49;;;;;;;11.75;9.05;;;;;;;29.55;41.59;100286.59;5113692;27;97249;-67
2022/08/15 01:03:20;;;;;;;13.02;8.90;;;;;;;29.46;41.58;100293.19;5104514;27;98709;-67
2022/08/15 01:05:50;;;;;;;12.20;9.02;;;;;;;29.19;42.72;100294.63;5116520;27;99548;-67
2022/08/15 01:08:18;;;;;;;17.77;8.68;;;;;;;29.33;41.97;100282.09;5112719;27;97531;-67
2022/08/15 01:10:45;;;;;;;11.52;8.95;;;;;;;29.19;42.79;100285.63;5114088;27;97103;-67
2022/08/15 01:13:12;;;;;;;11.45;9.20;;;;;;;29.39;42.21;100283.25;5113629;27;98924;-67
2022/08/15 01:15:38;;;;;;;11.23;8.18;;;;;;;29.07;43.05;100281.69;5115396;27;99879;-67
2022/08/15 01:18:06;;;;;;;10.90;8.60;;;;;;;29.30;42.40;100280.56;5114959;27;97686;-67
2022/08/15 01:20:35;;;;;;;11.02;8.57;;;;;;;29.24;42.42;100278.59;5121750;27;96878;-67
2022/08/15 01:23:12;;;;;;;12.15;8.32;;;;;;;29.09;42.93;100274.16;5115898;27;98940;-66
2022/08/15 01:25:45;;;;;;;10.48;9.38;;;;;;;29.02;43.19;100274.03;5115293;27;98582;-67
2022/08/15 01:28:16;;;;;;;11.48;8.98;;;;;;;29.16;42.93;100267.78;5114743;27;97213;-67
2022/08/15 01:30:48;;;;;;;11.25;8.60;;;;;;;28.95;43.63;100264.13;5118984;27;96786;-67
2022/08/15 01:33:15;;;;;;;11.82;9.30;;;;;;;29.06;43.16;100269.09;5115597;27;97902;-67
2022/08/15 01:35:42;;;;;;;12.75;7.97;;;;;;;28.85;44.09;100267.09;5115315;27;99432;-67
2022/08/15 01:38:21;;;;;;;15.73;9.18;;;;;;;28.77;44.36;100270.72;5116139;27;97182;-66
2022/08/15 01:40:59;;;;;;;13.60;8.73;;;;;;;28.78;44.12;100272.41;5116286;27;96763;-68
2022/08/15 01:43:30;;;;;;;11.80;8.63;;;;;;;28.63;44.56;100266.03;5114101;27;99402;-65
2022/08/15 01:46:02;;;;;;;16.35;9.30;;;;;;;28.69;44.65;100265.31;5114730;27;99123;-66
2022/08/15 01:48:33;;;;;;;12.15;9.60;;;;;;;28.52;44.92;100269.19;5118976;27;96821;-66
2022/08/15 01:51:04;;;;;;;11.75;9.70;;;;;;;28.43;45.33;100272.97;5113092;27;97274;-66
2022/08/15 01:53:35;;;;;;;13.10;9.20;;;;;;;28.31;45.64;100263.56;5117579;27;99307;-66
2022/08/15 01:56:08;;;;;;;12.00;8.90;;;;;;;28.39;45.64;100272.50;5114749;27;99515;-67
2022/08/15 01:58:38;;;;;;;14.30;9.57;;;;;;;28.24;46.09;100278.88;5114543;27;96848;-67
2022/08/15 02:01:09;;;;;;;11.23;9.00;;;;;;;28.26;46.17;100280.41;5117758;27;96898;-67
2022/08/15 02:03:38;;;;;;;15.95;10.40;;;;;;;28.11;46.52;100280.28;5109546;27;99198;-66
2022/08/15 02:06:09;;;;;;;14.75;9.43;;;;;;;28.17;46.66;100284.19;5114836;27;98806;-67
2022/08/15 02:08:36;;;;;;;19.42;10.43;;;;;;;27.99;47.11;100280.88;5115310;27;97074;-67
2022/08/15 02:11:05;;;;;;;14.82;10.35;;;;;;;28.06;46.92;100277.28;5115598;27;97286;-67
2022/08/15 02:13:32;;;;;;;13.23;9.40;;;;;;;28.06;46.90;100279.16;5112711;27;102846;-67
2022/08/15 02:16:00;;;;;;;15.30;9.40;;;;;;;28.20;46.86;100272.13;5115301;27;98737;-67
2022/08/15 02:18:27;;;;;;;11.75;9.45;;;;;;;28.10;46.84;100286.75;5115083;27;97650;-67
2022/08/15 02:20:54;;;;;;;13.48;9.90;;;;;;;28.06;46.87;100282.72;5117450;27;97316;-66
2022/08/15 02:23:21;;;;;;;12.23;9.60;;;;;;;27.85;47.48;100273.47;5116378;27;99404;-67
2022/08/15 02:25:48;;;;;;;11.75;9.80;;;;;;;28.09;46.92;100262.50;5114281;27;98461;-67
2022/08/15 02:28:16;;;;;;;11.43;10.15;;;;;;;28.09;46.73;100255.16;5116583;27;96974;-67
2022/08/15 02:30:43;;;;;;;13.80;9.50;;;;;;;28.08;46.89;100261.66;5114120;27;97587;-67
2022/08/15 02:33:10;;;;;;;16.60;10.63;;;;;;;27.96;46.99;100257.63;5114135;27;99551;-67
2022/08/15 02:35:36;;;;;;;13.10;9.85;;;;;;;28.03;46.63;100255.03;5114000;27;98877;-67
2022/08/15 02:38:05;;;;;;;12.48;10.13;;;;;;;28.06;46.89;100255.56;5116024;27;96727;-66
2022/08/15 02:40:33;;;;;;;11.80;10.38;;;;;;;27.87;47.32;100258.72;5115449;27;98939;-66
2022/08/15 02:43:03;;;;;;;17.17;9.65;;;;;;;27.91;47.39;100251.88;5114226;27;99069;-67
2022/08/15 02:45:34;;;;;;;13.07;9.90;;;;;;;27.71;48.00;100254.19;5113348;27;99216;-67
2022/08/15 02:48:01;;;;;;;15.77;10.35;;;;;;;27.94;47.21;100256.13;5115317;27;97320;-67
2022/08/15 02:50:27;;;;;;;11.05;9.48;;;;;;;28.11;46.97;100255.84;5111724;27;97214;-67
2022/08/15 02:52:53;;;;;;;13.23;9.93;;;;;;;28.17;46.87;100256.19;5113869;27;99456;-66
2022/08/15 02:55:21;;;;;;;14.50;10.77;;;;;;;28.16;47.04;100254.53;5113532;27;98877;-67
2022/08/15 02:57:47;;;;;;;13.70;10.63;;;;;;;28.21;46.85;100249.38;5115850;27;97820;-67
2022/08/15 03:00:16;;;;;;;15.60;10.65;;;;;;;28.34;46.70;100255.06;5115535;27;97631;-67
2022/08/15 03:02:53;;;;;;;17.63;10.10;;;;;;;28.26;46.98;100255.13;5114894;27;99359;-67
2022/08/15 03:05:20;;;;;;;14.18;11.15;;;;;;;28.30;46.65;100248.28;5114341;27;98917;-66
2022/08/15 03:07:46;;;;;;;19.65;11.20;;;;;;;28.36;46.77;100247.56;5114287;27;97377;-66
2022/08/15 03:10:13;;;;;;;16.65;10.68;;;;;;;28.36;46.74;100247.56;5115393;27;96885;-67
2022/08/15 03:12:50;;;;;;;15.82;10.88;;;;;;;28.16;47.48;100247.19;5112261;27;97485;-66
2022/08/15 03:15:17;;;;;;;11.43;10.25;;;;;;;28.25;47.05;100245.28;5112477;27;99258;-67
2022/08/15 03:17:44;;;;;;;12.50;11.00;;;;;;;28.01;47.81;100247.09;5110688;27;97574;-67
2022/08/15 03:20:13;;;;;;;13.60;11.07;;;;;;;28.08;47.77;100244.50;5112461;27;98031;-67
2022/08/15 03:22:41;;;;;;;16.23;10.68;;;;;;;28.01;47.95;100247.09;5115012;27;99105;-67
2022/08/15 03:25:09;;;;;;;14.48;11.07;;;;;;;27.90;48.38;100249.34;5111957;27;98801;-66
2022/08/15 03:27:35;;;;;;;13.90;10.82;;;;;;;28.07;47.80;100246.38;5109807;27;96957;-66
2022/08/15 03:30:01;;;;;;;16.63;12.02;;;;;;;27.90;48.60;100242.06;5114421;27;97097;-66
2022/08/15 03:32:29;;;;;;;17.27;11.55;;;;;;;27.94;48.14;100234.41;5111693;27;99414;-67
2022/08/15 03:34:55;;;;;;;16.38;11.45;;;;;;;27.86;48.54;100232.59;5114013;27;99289;-67
2022/08/15 03:37:23;;;;;;;17.63;11.43;;;;;;;27.84;48.68;100231.91;5113684;27;98345;-66
2022/08/15 03:39:50;;;;;;;14.73;10.73;;;;;;;27.94;48.36;100218.97;5112844;27;96895;-66
2022/08/15 03:42:16;;;;;;;17.98;11.55;;;;;;;27.98;48.21;100214.84;5112266;27;99052;-66
2022/08/15 03:44:43;;;;;;;19.27;12.05;;;;;;;28.07;47.99;100223.81;5113836;27;98849;-66
2022/08/15 03:47:10;;;;;;;14.43;11.38;;;;;;;28.25;47.42;100215.38;5112495;27;97303;-67
2022/08/15 03:49:36;;;;;;;15.10;11.95;;;;;;;28.27;47.63;100225.06;5114850;27;98720;-67
2022/08/15 03:52:06;;;;;;;15.90;10.77;;;;;;;27.90;48.71;100227.63;5114998;27;99065;-66
2022/08/15 03:54:34;;;;;;;14.43;11.68;;;;;;;27.84;48.89;100222.91;5108409;27;98930;-67
2022/08/15 03:57:00;;;;;;;21.88;12.40;;;;;;;27.73;49.50;100232.31;5109106;27;97151;-66
2022/08/15 03:59:26;;;;;;;15.95;11.20;;;;;;;28.06;48.21;100225.69;5115237;27;97476;-67
2022/08/15 04:01:53;;;;;;;13.73;11.48;;;;;;;27.89;48.88;100224.09;5113497;27;98966;-66
2022/08/15 04:04:19;;;;;;;14.05;11.73;;;;;;;28.01;48.52;100227.25;5115159;27;98909;-67
2022/08/15 04:06:46;;;;;;;13.07;11.63;;;;;;;27.62;49.48;100225.41;5110775;27;98586;-67
2022/08/15 04:09:12;;;;;;;13.27;11.85;;;;;;;27.79;49.15;100228.88;5113147;27;96819;-67
2022/08/15 04:11:40;;;;;;;20.45;11.73;;;;;;;27.52;49.74;100230.19;5114907;27;97738;-67
2022/08/15 04:14:07;;;;;;;22.08;12.43;;;;;;;27.74;49.37;100228.56;5111419;27;98953;-67
2022/08/15 04:16:34;;;;;;;19.73;13.00;;;;;;;27.93;48.90;100222.69;5112386;27;97228;-67
2022/08/15 04:19:00;;;;;;;18.27;13.13;;;;;;;27.96;48.49;100225.03;5115681;27;97909;-67
2022/08/15 04:21:27;;;;;;;14.60;11.95;;;;;;;28.05;48.51;100218.53;5113708;27;99022;-67
2022/08/15 04:23:53;;;;;;;14.88;12.43;;;;;;;27.79;49.20;100218.03;5113647;27;99846;-68
2022/08/15 04:26:20;;;;;;;20.42;12.25;;;;;;;27.89;49.15;100225.97;5111249;27;97117;-67
2022/08/15 04:28:47;;;;;;;20.27;13.05;;;;;;;27.94;48.86;100223.56;5113505;27;96979;-67
2022/08/15 04:31:16;;;;;;;16.23;12.15;;;;;;;27.98;48.71;100220.28;5112038;27;99058;-67
2022/08/15 04:33:44;;;;;;;17.90;13.18;;;;;;;27.84;49.08;100229.19;5112039;27;98995;-68
2022/08/15 04:36:13;;;;;;;15.82;12.95;;;;;;;27.87;49.02;100223.41;5112982;27;96967;-68
2022/08/15 04:38:40;;;;;;;18.58;13.18;;;;;;;27.74;49.30;100224.00;5113737;27;97061;-66
2022/08/15 04:41:08;;;;;;;18.90;13.30;;;;;;;27.66;49.61;100224.03;5110769;27;99301;-67
2022/08/15 04:43:37;;;;;;;14.77;12.10;;;;;;;27.82;49.25;100222.25;5113595;27;98118;-68
2022/08/15 04:46:06;;;;;;;16.23;12.95;;;;;;;27.94;49.28;100229.81;5112355;27;96988;-67
2022/08/15 04:48:32;;;;;;;17.35;12.90;;;;;;;27.83;49.12;100230.22;5110978;27;96922;-67
2022/08/15 04:51:02;;;;;;;19.42;12.02;;;;;;;28.05;48.76;100220.41;5109246;27;98885;-68
2022/08/15 04:53:33;;;;;;;27.02;13.40;;;;;;;28.03;48.76;100227.88;5109944;27;99297;-66
2022/08/15 04:56:01;;;;;;;16.80;12.18;;;;;;;28.03;48.87;100228.72;5112139;27;97213;-67
2022/08/15 04:58:28;;;;;;;25.08;12.85;;;;;;;28.10;48.56;100228.88;5113567;27;97184;-66
2022/08/15 05:00:59;;;;;;;18.35;12.05;;;;;;;28.36;47.75;100229.38;5113238;27;98895;-67
2022/08/15 05:03:27;;;;;;;31.17;13.20;;;;;;;28.52;47.34;100223.00;5110437;27;98102;-67
2022/08/15 05:05:56;;;;;;;25.83;12.70;;;;;;;28.52;47.62;100223.00;5111974;27;97703;-67
2022/08/15 05:08:26;;;;;;;33.22;12.73;;;;;;;28.51;47.49;100224.00;5108961;27;97696;-67
2022/08/15 05:10:56;;;;;;;24.50;12.32;;;;;;;28.75;47.20;100223.00;5114310;27;98115;-67
2022/08/15 05:13:25;;;;;;;15.77;11.15;;;;;;;28.81;46.85;100223.13;5110070;27;100504;-68
2022/08/15 05:15:53;;;;;;;16.92;11.13;;;;;;;28.91;46.71;100223.69;5113751;27;96812;-68
2022/08/15 05:18:20;;;;;;;13.35;11.30;;;;;;;28.76;46.92;100217.34;5113189;27;97584;-68
2022/08/15 05:20:47;;;;;;;17.40;11.05;;;;;;;28.61;47.40;100226.50;5113778;27;99340;-68
2022/08/15 05:23:16;;;;;;;15.30;10.90;;;;;;;28.55;47.68;100222.63;5111102;27;99483;-68
2022/08/15 05:25:45;;;;;;;13.45;10.73;;;;;;;28.72;47.35;100228.75;5113400;27;96701;-68
2022/08/15 05:28:13;;;;;;;17.55;11.13;;;;;;;28.44;47.85;100234.78;5112925;27;97389;-68
2022/08/15 05:30:40;;;;;;;14.10;10.23;;;;;;;28.54;47.94;100234.53;5110872;27;101507;-68
2022/08/15 05:33:11;;;;;;;14.38;11.82;;;;;;;28.23;48.48;100231.88;5113332;27;97870;-68
2022/08/15 05:35:41;;;;;;;21.00;10.75;;;;;;;28.40;48.06;100224.44;5108967;27;97266;-73
2022/08/15 05:38:14;;;;;;;16.13;11.18;;;;;;;28.37;48.03;100225.66;5112610;27;96823;-68
2022/08/15 05:40:50;;;;;;;18.13;12.23;;;;;;;28.23;48.41;100228.28;5112356;27;102045;-68
2022/08/15 05:43:31;;;;;;;15.70;11.60;;;;;;;28.30;48.51;100223.84;5113030;27;98589;-66
2022/08/15 05:46:03;;;;;;;14.48;11.55;;;;;;;28.49;47.83;100229.63;5102017;27;97358;-68
2022/08/15 05:48:31;;;;;;;16.10;11.38;;;;;;;28.90;47.02;100235.59;5108917;27;96952;-69
2022/08/15 05:51:07;;;;;;;15.70;11.40;;;;;;;29.25;45.85;100230.47;5113538;27;101865;-67
2022/08/15 05:53:51;;;;;;;13.52;11.35;;;;;;;29.07;46.55;100235.44;5116370;27;99420;-67
2022/08/15 05:56:31;;;;;;;23.38;11.35;;;;;;;29.19;46.20;100234.78;5114517;27;97055;-66
2022/08/15 05:59:02;;;;;;;16.55;11.75;;;;;;;29.27;46.04;100233.84;5105336;27;97725;-66
2022/08/15 06:01:34;;;;;;;13.80;11.57;;;;;;;29.25;46.18;100227.75;5114044;27;99036;-66
2022/08/15 06:04:06;;;;;;;14.55;11.77;;;;;;;29.12;46.21;100225.69;5114934;27;97729;-67
2022/08/15 06:06:35;;;;;;;16.80;12.45;;;;;;;28.91;46.54;100223.69;5110601;27;98528;-66
2022/08/15 06:09:14;;;;;;;16.30;12.50;;;;;;;28.77;47.14;100218.22;5112527;27;99437;-66
2022/08/15 06:11:46;;;;;;;19.33;11.73;;;;;;;28.78;47.17;100218.03;5116273;27;99091;-67
2022/08/15 06:14:29;;;;;;;18.20;12.45;;;;;;;28.77;46.97;100224.50;5111969;27;99170;-66
2022/08/15 06:17:00;;;;;;;13.55;12.18;;;;;;;28.65;47.08;100217.78;5108876;27;97416;-69
2022/08/15 06:19:31;;;;;;;16.52;12.38;;;;;;;28.62;47.20;100217.31;5108788;27;97596;-67
2022/08/15 06:22:08;;;;;;;17.90;13.10;;;;;;;28.59;47.10;100215.81;5110791;27;99281;-68
2022/08/15 06:24:50;;;;;;;17.73;12.43;;;;;;;28.61;47.49;100219.19;5113740;27;101405;-68
2022/08/15 06:27:30;;;;;;;16.05;12.85;;;;;;;28.73;47.13;100222.31;5114897;27;97348;-68
2022/08/15 06:30:06;;;;;;;14.63;11.68;;;;;;;29.13;46.02;100223.81;5113907;27;97918;-68
2022/08/15 06:32:40;;;;;;;20.27;12.70;;;;;;;29.41;45.40;100222.13;5115798;27;99045;-68
2022/08/15 06:35:16;;;;;;;15.40;12.23;;;;;;;29.53;45.51;100226.09;5112063;27;99231;-67
2022/08/15 06:37:58;;;;;;;18.95;12.10;;;;;;;29.67;44.84;100225.19;5109253;27;96818;-68
2022/08/15 06:40:33;;;;;;;13.32;11.40;;;;;;;29.63;45.01;100228.50;5114419;27;96941;-68
2022/08/15 06:43:00;;;;;;;16.95;12.32;;;;;;;29.40;45.27;100223.19;5114652;27;97930;-67
2022/08/15 06:45:30;;;;;;;13.10;11.52;;;;;;;29.18;46.07;100218.63;5115352;27;97517;-67
2022/08/15 06:48:02;;;;;;;15.05;12.02;;;;;;;29.27;46.00;100221.09;5113137;27;98872;-67
2022/08/15 06:50:34;;;;;;;22.27;12.63;;;;;;;29.28;45.71;100208.31;5114289;27;96982;-66
2022/08/15 06:53:07;;;;;;;18.77;12.30;;;;;;;29.19;45.97;100217.63;5113309;27;99392;-67
2022/08/15 06:55:44;;;;;;;13.52;12.10;;;;;;;29.59;45.21;100217.16;5114046;27;98644;-67
2022/08/15 06:58:16;;;;;;;15.13;11.65;;;;;;;29.91;44.71;100215.03;5112235;27;96832;-66
2022/08/15 07:00:47;;;;;;;16.00;11.82;;;;;;;30.23;43.63;100209.13;5117028;27;96793;-67
2022/08/15 07:03:22;;;;;;;13.25;11.63;;;;;;;30.46;43.21;100208.91;5113850;27;100391;-68
2022/08/15 07:05:55;;;;;;;13.03;11.20;;;;;;;30.55;42.88;100199.59;5112658;27;102167;-67
2022/08/15 07:08:30;;;;;;;14.35;12.15;;;;;;;30.44;43.29;100209.13;5106626;27;97521;-67
2022/08/15 07:11:07;;;;;;;16.65;11.23;;;;;;;30.42;42.92;100205.75;5114771;27;97248;-67
2022/08/15 07:13:45;;;;;;;13.13;11.40;;;;;;;30.59;42.91;100202.78;5111220;27;99128;-67
2022/08/15 07:16:20;;;;;;;13.27;11.02;;;;;;;30.77;42.40;100201.25;5101924;27;99369;-67
2022/08/15 07:18:51;;;;;;;14.48;12.00;;;;;;;30.81;42.22;100193.50;5110110;27;97178;-67
2022/08/15 07:21:22;;;;;;;14.70;11.10;;;;;;;30.79;42.05;100203.75;5106942;27;97014;-68
2022/08/15 07:24:04;;;;;;;14.40;11.30;;;;;;;31.26;41.85;100203.91;5112726;27;99361;-67
2022/08/15 07:26:42;;;;;;;14.15;10.93;;;;;;;31.32;41.35;100185.88;5104002;27;98233;-67
2022/08/15 07:29:12;;;;;;;14.70;10.95;;;;;;;31.77;40.57;100195.34;5114731;27;96894;-68
2022/08/15 07:31:43;;;;;;;11.63;10.43;;;;;;;31.86;40.29;100185.94;5113585;27;96858;-68
2022/08/15 07:34:18;;;;;;;13.95;10.50;;;;;;;32.17;39.83;100187.28;5103712;27;101530;-67
2022/08/15 07:43:35;;;;;;;12.40;9.13;;;;;;;32.52;37.92;100182.50;5115227;27;98128;-67
2022/08/15 07:46:28;;;;;;;11.10;8.35;;;;;;;32.51;37.99;100189.00;5117053;27;97781;-69
2022/08/15 07:48:59;;;;;;;12.52;8.63;;;;;;;32.51;37.86;100189.00;5108809;27;98240;-68
2022/08/15 07:51:28;;;;;;;12.23;8.57;;;;;;;32.45;38.19;100185.22;5108419;27;98548;-69
2022/08/15 07:53:59;;;;;;;9.77;7.57;;;;;;;32.60;37.78;100185.88;5108636;27;98024;-69
2022/08/15 07:56:28;;;;;;;8.98;7.38;;;;;;;32.77;36.90;100189.88;5107022;27;98821;-70
2022/08/15 07:59:09;;;;;;;9.10;7.18;;;;;;;32.56;36.86;100181.03;5107419;27;97518;-69
2022/08/15 08:01:38;;;;;;;8.23;7.00;;;;;;;32.45;37.39;100169.66;5110283;27;96761;-69
2022/08/15 08:04:11;;;;;;;12.95;7.57;;;;;;;32.70;37.23;100178.09;5100648;27;99430;-70
2022/08/15 08:06:41;;;;;;;13.77;8.60;;;;;;;32.59;37.42;100178.72;5103060;27;98125;-70
2022/08/15 08:09:20;;;;;;;9.63;8.13;;;;;;;32.28;37.94;100186.69;5106339;27;98012;-70
2022/08/15 08:11:48;;;;;;;10.98;8.05;;;;;;;32.13;38.20;100177.78;5112044;27;96964;-70
2022/08/15 08:14:28;;;;;;;10.43;9.32;;;;;;;32.49;37.99;100181.03;5114366;27;96846;-69
2022/08/15 08:16:58;;;;;;;11.00;9.10;;;;;;;32.63;37.84;100173.63;5111234;27;99015;-70
2022/08/15 08:19:34;;;;;;;11.88;9.30;;;;;;;32.70;37.82;100171.78;5112568;27;99686;-69
2022/08/15 08:22:11;;;;;;;11.07;9.10;;;;;;;32.93;36.97;100177.66;5114064;27;96949;-69
2022/08/15 08:24:54;;;;;;;13.63;9.10;;;;;;;32.70;36.76;100179.97;5112443;27;98763;-70
2022/08/15 08:27:35;;;;;;;12.85;8.50;;;;;;;33.31;36.13;100174.22;5108580;27;97701;-70
2022/08/15 08:30:09;;;;;;;13.68;9.35;;;;;;;33.25;36.10;100167.72;5109696;27;98881;-69
2022/08/15 08:32:45;;;;;;;12.30;8.98;;;;;;;33.38;35.85;100173.16;5115000;27;97509;-69
2022/08/15 08:35:28;;;;;;;15.00;9.55;;;;;;;33.59;35.46;100167.38;5110582;27;98710;-71
2022/08/15 08:38:02;;;;;;;10.57;8.43;;;;;;;33.50;35.17;100163.19;5104823;27;98956;-69
2022/08/15 08:43:32;;;;;;;12.07;8.93;;;;;;;33.73;34.79;100173.66;5113964;27;98241;-67
2022/08/15 08:46:06;;;;;;;;;;;;;;;32.97;36.35;100167.97;5110965;27;97097;-66
2022/08/15 08:48:47;;;;;;;13.43;8.93;;;;;;;33.40;35.49;100164.72;5112645;27;99422;-67
2022/08/15 08:51:24;;;;;;;11.70;8.52;;;;;;;33.38;35.50;100166.81;5108527;27;98818;-67
2022/08/15 08:54:02;;;;;;;11.05;8.70;;;;;;;33.14;36.05;100166.47;5113300;27;97689;-69
2022/08/15 08:56:31;;;;;;;12.07;7.78;;;;;;;33.51;35.20;100158.56;5106520;27;97464;-69
2022/08/15 08:59:07;;;;;;;13.50;7.38;;;;;;;34.04;34.11;100161.88;5106441;27;99226;-68
2022/08/15 09:01:37;;;;;;;8.82;7.97;;;;;;;33.57;34.92;100161.25;5106177;27;97761;-68
2022/08/15 09:04:10;;;;;;;12.60;7.20;;;;;;;33.93;34.68;100162.59;5106700;27;98815;-68
2022/08/15 09:06:41;;;;;;;13.07;7.93;;;;;;;33.78;34.76;100156.56;5103742;27;98073;-69
2022/08/15 09:09:14;;;;;;;8.68;7.80;;;;;;;34.13;33.95;100162.47;5106216;27;99279;-68
2022/08/15 09:11:44;;;;;;;10.63;8.20;;;;;;;34.14;33.50;100151.25;5111352;27;99233;-69
2022/08/15 09:14:16;;;;;;;10.02;7.53;;;;;;;33.67;34.63;100154.50;5110806;27;96898;-69
2022/08/15 09:16:46;;;;;;;8.77;7.30;;;;;;;33.72;34.38;100144.59;5107091;27;97419;-69
2022/08/15 09:19:17;;;;;;;12.27;8.52;;;;;;;34.00;34.21;100145.03;5111937;27;98919;-69
2022/08/15 09:21:45;;;;;;;10.55;7.68;;;;;;;34.12;33.31;100150.66;5110294;27;100870;-68
2022/08/15 09:24:13;;;;;;;20.05;8.68;;;;;;;33.96;34.01;100148.44;5109767;27;96850;-69
2022/08/15 09:26:48;;;;;;;8.75;7.85;;;;;;;33.68;33.94;100137.81;5111480;27;97654;-68
2022/08/15 09:29:23;;;;;;;10.75;7.28;;;;;;;33.49;34.60;100142.34;5112311;27;97810;-69
2022/08/15 09:32:05;;;;;;;19.00;8.18;;;;;;;33.72;34.03;100138.25;5111282;27;99167;-69
2022/08/15 09:34:49;;;;;;;7.65;6.90;;;;;;;33.91;33.10;100132.66;5111976;27;96943;-69
2022/08/15 09:37:33;;;;;;;10.05;7.13;;;;;;;34.07;33.22;100141.44;5111219;27;96994;-69
2022/08/15 09:40:21;;;;;;;13.38;7.75;;;;;;;33.94;33.85;100134.09;5114599;27;98890;-70
2022/08/15 09:43:01;;;;;;;8.45;7.63;;;;;;;33.84;33.96;100137.34;5114349;27;99125;-68
2022/08/15 09:45:38;;;;;;;9.52;8.40;;;;;;;33.78;33.94;100132.75;5111831;27;97185;-69
2022/08/15 09:48:28;;;;;;;8.30;7.50;;;;;;;33.73;34.21;100134.47;5114607;27;96886;-68
2022/08/15 09:51:08;;;;;;;10.48;7.95;;;;;;;33.42;34.44;100133.31;5112133;27;102019;-69
2022/08/15 09:53:58;;;;;;;11.75;9.00;;;;;;;33.56;34.35;100128.59;5112209;27;99304;-69
2022/08/15 09:56:27;;;;;;;11.43;8.35;;;;;;;33.60;34.07;100124.41;5107306;27;99167;-70
2022/08/15 09:58:57;;;;;;;12.80;9.10;;;;;;;33.67;34.32;100116.13;5115064;27;96905;-68
2022/08/15 10:01:29;;;;;;;10.43;8.52;;;;;;;33.98;33.64;100127.13;5107056;27;99243;-69
2022/08/15 10:04:01;;;;;;;10.15;8.77;;;;;;;34.25;33.18;100117.69;5113890;27;98907;-68
2022/08/15 10:06:30;;;;;;;9.95;8.32;;;;;;;34.37;33.04;100110.41;5112494;27;96801;-68
2022/08/15 10:09:23;;;;;;;9.00;8.10;;;;;;;34.65;32.27;100106.34;5116451;27;97328;-69
2022/08/15 10:12:16;;;;;;;8.13;7.32;;;;;;;34.70;31.71;100103.78;5113120;27;98969;-69
2022/08/15 10:14:56;;;;;;;8.85;7.30;;;;;;;35.00;31.13;100112.97;5110542;27;99003;-68
2022/08/15 10:17:37;;;;;;;8.27;7.22;;;;;;;34.80;31.26;100106.84;5111711;27;98564;-68
2022/08/15 10:20:38;;;;;;;9.15;8.13;;;;;;;34.67;31.39;100105.06;5118037;27;97060;-69
2022/08/15 10:23:13;;;;;;;8.02;7.15;;;;;;;34.87;31.33;100104.88;5107989;27;99671;-69
2022/08/15 10:25:41;;;;;;;14.70;8.02;;;;;;;34.65;31.85;100098.97;5105345;27;99417;-69
2022/08/15 10:28:21;;;;;;;9.48;7.88;;;;;;;35.01;30.68;100098.16;5107350;27;99082;-69
2022/08/15 10:31:09;;;;;;;9.77;7.18;;;;;;;35.56;30.25;100095.41;5112446;27;98115;-69
2022/08/15 10:33:41;;;;;;;9.02;7.30;;;;;;;35.35;30.70;100098.63;5111761;27;99137;-68
2022/08/15 10:36:23;;;;;;;8.80;8.05;;;;;;;34.99;31.22;100092.06;5112429;27;99254;-68
2022/08/15 10:38:56;;;;;;;8.43;7.63;;;;;;;34.73;31.66;100084.13;5110594;27;96834;-69
2022/08/15 10:41:35;;;;;;;9.70;8.23;;;;;;;34.40;32.08;100085.25;5114865;27;96981;-68
2022/08/15 10:44:13;;;;;;;11.77;7.63;;;;;;;34.60;31.93;100089.72;5116076;27;99485;-69
2022/08/15 10:46:55;;;;;;;12.57;7.95;;;;;;;34.98;31.37;100087.66;5111196;27;98944;-69
2022/08/15 10:49:30;;;;;;;8.77;7.40;;;;;;;35.04;31.44;100092.25;5114650;27;97418;-69
2022/08/15 10:52:12;;;;;;;10.75;8.25;;;;;;;35.33;30.46;100089.78;5114712;27;97977;-68
2022/08/15 10:54:59;;;;;;;8.15;7.35;;;;;;;35.10;30.81;100085.81;5113071;27;99284;-69
2022/08/15 10:57:34;;;;;;;8.13;6.97;;;;;;;34.84;31.26;100082.56;5109588;27;99320;-69
2022/08/15 11:00:03;;;;;;;9.93;7.43;;;;;;;34.93;30.25;100087.50;5114117;27;96920;-68
2022/08/15 11:02:39;;;;;;;9.10;7.20;;;;;;;34.50;31.09;100079.28;5115621;27;96937;-68
2022/08/15 11:05:09;;;;;;;9.00;7.05;;;;;;;34.18;31.49;100077.66;5112878;27;98906;-68
2022/08/15 11:07:38;;;;;;;10.68;7.82;;;;;;;34.36;31.12;100084.03;5111501;27;99651;-68
2022/08/15 11:10:11;;;;;;;7.53;6.80;;;;;;;34.27;31.64;100077.16;5116398;27;96988;-68
2022/08/15 11:12:43;;;;;;;9.13;7.32;;;;;;;34.73;30.69;100082.22;5113795;27;97082;-68
2022/08/15 11:15:17;;;;;;;10.45;7.55;;;;;;;34.94;30.49;100072.69;5112373;27;99353;-69
2022/08/15 11:17:48;;;;;;;10.60;7.13;;;;;;;35.09;30.63;100075.91;5111380;27;98153;-68
2022/08/15 11:20:17;;;;;;;11.48;7.97;;;;;;;35.04;30.41;100063.94;5110342;27;98843;-69
2022/08/15 11:22:51;;;;;;;7.95;7.20;;;;;;;35.22;30.01;100068.59;5108033;27;96938;-69
2022/08/15 11:25:24;;;;;;;8.43;6.95;;;;;;;34.68;31.04;100072.97;5113573;27;100536;-69
2022/08/15 11:28:03;;;;;;;10.10;7.70;;;;;;;34.41;31.25;100058.69;5110845;27;99833;-69
2022/08/15 11:30:32;;;;;;;9.43;7.43;;;;;;;34.89;30.81;100055.25;5111795;27;96895;-69
2022/08/15 11:33:21;;;;;;;8.82;7.28;;;;;;;34.58;31.45;100050.72;5113740;27;96963;-68
2022/08/15 11:35:48;;;;;;;7.15;6.45;;;;;;;34.98;30.80;100049.25;5111151;27;99404;-68
2022/08/15 11:38:53;;;;;;;8.70;7.63;;;;;;;34.44;31.66;100046.44;5106477;27;98818;-68
2022/08/15 11:41:26;;;;;;;9.25;8.35;;;;;;;34.63;31.13;100048.97;5103157;27;96832;-68
2022/08/15 11:43:53;;;;;;;8.25;7.43;;;;;;;34.76;31.04;100040.63;5110153;27;96922;-68
2022/08/15 11:46:23;;;;;;;9.38;8.00;;;;;;;34.98;31.04;100035.50;5111336;27;99016;-69
2022/08/15 11:48:53;;;;;;;8.43;7.63;;;;;;;35.02;30.61;100042.22;5111111;27;100639;-68